sensor_id;sensor_type;location;lat;lon;timestamp;pressure;altitude;pressure_sealevel;temperature;humidity
46291;BME280;32023;44.444;26.006;2023-03-14T00:02:09;100760.97;;;5.00;52.03
46291;BME280;32023;44.444;26.006;2023-03-14T00:04:38;100768.97;;;5.02;51.90
46291;BME280;32023;44.444;26.006;2023-03-14T00:07:04;100765.41;;;5.01;51.45
46291;BME280;32023;44.444;26.006;2023-03-14T00:09:33;100766.66;;;4.99;51.70
46291;BME280;32023;44.444;26.006;2023-03-14T00:11:59;100758.47;;;4.99;51.63
46291;BME280;32023;44.444;26.006;2023-03-14T00:14:26;100760.56;;;4.97;51.51
46291;BME280;32023;44.444;26.006;2023-03-14T00:16:54;100753.66;;;4.94;52.19
46291;BME280;32023;44.444;26.006;2023-03-14T00:19:21;100752.59;;;4.95;51.98
46291;BME280;32023;44.444;26.006;2023-03-14T00:21:53;100746.09;;;4.96;51.73
46291;BME280;32023;44.444;26.006;2023-03-14T00:26:49;100743.16;;;4.98;51.97
46291;BME280;32023;44.444;26.006;2023-03-14T00:29:15;100740.44;;;4.98;51.59
46291;BME280;32023;44.444;26.006;2023-03-14T00:31:45;100735.59;;;5.00;51.45
46291;BME280;32023;44.444;26.006;2023-03-14T00:34:14;100737.88;;;5.03;51.86
46291;BME280;32023;44.444;26.006;2023-03-14T00:36:40;100732.22;;;5.04;51.91
46291;BME280;32023;44.444;26.006;2023-03-14T00:39:06;100739.56;;;5.04;51.41
46291;BME280;32023;44.444;26.006;2023-03-14T00:41:39;100742.53;;;5.02;51.61
46291;BME280;32023;44.444;26.006;2023-03-14T00:44:05;100741.03;;;5.00;51.34
46291;BME280;32023;44.444;26.006;2023-03-14T00:46:31;100732.41;;;5.03;51.56
46291;BME280;32023;44.444;26.006;2023-03-14T00:48:57;100729.69;;;5.03;51.23
46291;BME280;32023;44.444;26.006;2023-03-14T00:53:54;100722.53;;;5.08;51.46
46291;BME280;32023;44.444;26.006;2023-03-14T00:56:28;100731.34;;;5.10;51.34
46291;BME280;32023;44.444;26.006;2023-03-14T00:59:15;100725.47;;;5.13;51.36
46291;BME280;32023;44.444;26.006;2023-03-14T01:26:18;100687.81;;;5.28;50.74
46291;BME280;32023;44.444;26.006;2023-03-14T01:29:22;100685.69;;;5.30;50.50
46291;BME280;32023;44.444;26.006;2023-03-14T01:34:59;100683.63;;;5.26;51.07
46291;BME280;32023;44.444;26.006;2023-03-14T02:08:35;100668.16;;;5.07;51.39
46291;BME280;32023;44.444;26.006;2023-03-14T03:37:40;100627.00;;;4.57;51.32
46291;BME280;32023;44.444;26.006;2023-03-14T04:30:13;100623.03;;;4.53;53.23
46291;BME280;32023;44.444;26.006;2023-03-14T04:33:08;100633.31;;;4.51;52.63
46291;BME280;32023;44.444;26.006;2023-03-14T04:35:53;100626.19;;;4.50;52.33
46291;BME280;32023;44.444;26.006;2023-03-14T04:38:30;100626.41;;;4.49;51.89
46291;BME280;32023;44.444;26.006;2023-03-14T04:41:23;100625.97;;;4.52;51.33
46291;BME280;32023;44.444;26.006;2023-03-14T04:44:01;100623.66;;;4.55;51.95
46291;BME280;32023;44.444;26.006;2023-03-14T04:46:48;100622.38;;;4.58;52.23
46291;BME280;32023;44.444;26.006;2023-03-14T04:52:07;100624.69;;;4.61;53.19
46291;BME280;32023;44.444;26.006;2023-03-14T04:55:06;100628.88;;;4.63;51.90
46291;BME280;32023;44.444;26.006;2023-03-14T05:03:15;100639.09;;;4.81;50.02
46291;BME280;32023;44.444;26.006;2023-03-14T05:05:51;100643.47;;;4.89;50.43
46291;BME280;32023;44.444;26.006;2023-03-14T05:08:32;100638.81;;;4.96;50.73
46291;BME280;32023;44.444;26.006;2023-03-14T05:11:17;100633.78;;;4.99;51.34
46291;BME280;32023;44.444;26.006;2023-03-14T05:13:46;100637.34;;;5.00;52.45
46291;BME280;32023;44.444;26.006;2023-03-14T05:16:20;100628.56;;;4.98;53.56
46291;BME280;32023;44.444;26.006;2023-03-14T05:18:58;100622.28;;;4.91;53.26
46291;BME280;32023;44.444;26.006;2023-03-14T05:24:27;100628.81;;;4.83;54.76
46291;BME280;32023;44.444;26.006;2023-03-14T05:26:54;100629.63;;;4.83;54.79
46291;BME280;32023;44.444;26.006;2023-03-14T05:29:31;100631.13;;;4.86;54.82
46291;BME280;32023;44.444;26.006;2023-03-14T05:31:59;100633.59;;;4.88;54.73
46291;BME280;32023;44.444;26.006;2023-03-14T05:34:26;100633.00;;;4.85;54.85
46291;BME280;32023;44.444;26.006;2023-03-14T05:36:54;100629.63;;;4.83;54.88
46291;BME280;32023;44.444;26.006;2023-03-14T05:39:22;100632.16;;;4.85;54.72
46291;BME280;32023;44.444;26.006;2023-03-14T05:41:50;100628.78;;;4.90;54.44
46291;BME280;32023;44.444;26.006;2023-03-14T05:44:17;100625.81;;;4.91;54.47
46291;BME280;32023;44.444;26.006;2023-03-14T05:46:46;100632.53;;;4.95;54.11
46291;BME280;32023;44.444;26.006;2023-03-14T05:49:15;100622.66;;;5.01;54.03
46291;BME280;32023;44.444;26.006;2023-03-14T05:51:43;100630.78;;;5.07;53.45
46291;BME280;32023;44.444;26.006;2023-03-14T05:54:09;100617.31;;;5.19;53.44
46291;BME280;32023;44.444;26.006;2023-03-14T05:56:36;100619.34;;;5.30;53.03
46291;BME280;32023;44.444;26.006;2023-03-14T05:59:05;100621.16;;;5.43;52.79
46291;BME280;32023;44.444;26.006;2023-03-14T06:01:33;100618.94;;;5.58;52.32
46291;BME280;32023;44.444;26.006;2023-03-14T06:03:59;100609.81;;;5.70;51.88
46291;BME280;32023;44.444;26.006;2023-03-14T06:06:25;100615.19;;;5.83;52.03
46291;BME280;32023;44.444;26.006;2023-03-14T06:08:52;100612.13;;;5.98;51.69
46291;BME280;32023;44.444;26.006;2023-03-14T06:11:18;100609.81;;;6.20;51.11
46291;BME280;32023;44.444;26.006;2023-03-14T06:13:44;100611.75;;;6.38;49.99
46291;BME280;32023;44.444;26.006;2023-03-14T06:16:12;100613.06;;;6.53;50.20
46291;BME280;32023;44.444;26.006;2023-03-14T06:18:41;100618.53;;;6.71;49.54
46291;BME280;32023;44.444;26.006;2023-03-14T06:21:12;100621.72;;;6.87;48.78
46291;BME280;32023;44.444;26.006;2023-03-14T06:23:38;100611.97;;;7.09;48.29
46291;BME280;32023;44.444;26.006;2023-03-14T06:26:04;100620.13;;;7.27;47.66
46291;BME280;32023;44.444;26.006;2023-03-14T06:28:34;100606.84;;;7.42;46.99
46291;BME280;32023;44.444;26.006;2023-03-14T06:31:07;100612.25;;;7.60;46.47
46291;BME280;32023;44.444;26.006;2023-03-14T06:33:33;100607.91;;;7.83;45.66
46291;BME280;32023;44.444;26.006;2023-03-14T06:36:01;100604.13;;;8.07;45.16
46291;BME280;32023;44.444;26.006;2023-03-14T06:38:28;100604.75;;;8.32;44.66
46291;BME280;32023;44.444;26.006;2023-03-14T06:41:10;100608.31;;;8.56;43.81
46291;BME280;32023;44.444;26.006;2023-03-14T06:43:39;100590.25;;;8.83;43.06
46291;BME280;32023;44.444;26.006;2023-03-14T06:46:05;100586.09;;;9.09;42.22
46291;BME280;32023;44.444;26.006;2023-03-14T06:48:35;100593.66;;;9.30;41.50
46291;BME280;32023;44.444;26.006;2023-03-14T06:51:03;100589.38;;;9.51;40.47
46291;BME280;32023;44.444;26.006;2023-03-14T06:53:39;100582.06;;;9.73;40.12
46291;BME280;32023;44.444;26.006;2023-03-14T06:56:06;100580.00;;;9.97;39.28
46291;BME280;32023;44.444;26.006;2023-03-14T06:58:32;100580.31;;;10.17;39.02
46291;BME280;32023;44.444;26.006;2023-03-14T07:04:17;100575.75;;;10.61;37.06
46291;BME280;32023;44.444;26.006;2023-03-14T07:06:44;100572.59;;;10.74;36.19
46291;BME280;32023;44.444;26.006;2023-03-14T07:09:12;100573.97;;;10.93;35.72
46291;BME280;32023;44.444;26.006;2023-03-14T07:11:39;100575.28;;;11.13;35.32
46291;BME280;32023;44.444;26.006;2023-03-14T07:14:05;100570.03;;;11.38;35.43
46291;BME280;32023;44.444;26.006;2023-03-14T07:16:31;100568.88;;;11.60;34.72
46291;BME280;32023;44.444;26.006;2023-03-14T07:18:59;100566.59;;;11.74;33.70
46291;BME280;32023;44.444;26.006;2023-03-14T07:21:26;100564.03;;;11.99;33.38
46291;BME280;32023;44.444;26.006;2023-03-14T07:23:52;100561.72;;;12.23;32.84
46291;BME280;32023;44.444;26.006;2023-03-14T07:26:18;100564.59;;;12.38;32.16
46291;BME280;32023;44.444;26.006;2023-03-14T07:28:44;100566.34;;;12.60;31.76
46291;BME280;32023;44.444;26.006;2023-03-14T07:31:11;100566.97;;;12.77;31.19
46291;BME280;32023;44.444;26.006;2023-03-14T07:33:39;100561.00;;;12.95;30.85
46291;BME280;32023;44.444;26.006;2023-03-14T07:36:05;100558.88;;;13.17;30.57
46291;BME280;32023;44.444;26.006;2023-03-14T07:38:32;100555.34;;;13.47;29.94
46291;BME280;32023;44.444;26.006;2023-03-14T07:41:01;100558.97;;;13.68;29.12
46291;BME280;32023;44.444;26.006;2023-03-14T07:43:30;100562.59;;;13.93;28.63
46291;BME280;32023;44.444;26.006;2023-03-14T07:45:57;100559.81;;;14.19;28.07
46291;BME280;32023;44.444;26.006;2023-03-14T07:48:23;100543.47;;;14.42;27.38
46291;BME280;32023;44.444;26.006;2023-03-14T07:53:21;100536.66;;;14.84;26.42
46291;BME280;32023;44.444;26.006;2023-03-14T07:55:47;100543.25;;;14.98;26.03
46291;BME280;32023;44.444;26.006;2023-03-14T07:58:16;100545.94;;;15.13;25.88
46291;BME280;32023;44.444;26.006;2023-03-14T08:00:42;100530.88;;;15.29;25.91
46291;BME280;32023;44.444;26.006;2023-03-14T08:03:15;100536.34;;;15.45;25.55
46291;BME280;32023;44.444;26.006;2023-03-14T08:05:42;100534.63;;;15.49;25.15
46291;BME280;32023;44.444;26.006;2023-03-14T08:08:11;100534.25;;;15.65;24.76
46291;BME280;32023;44.444;26.006;2023-03-14T08:10:38;100538.88;;;15.80;24.47
46291;BME280;32023;44.444;26.006;2023-03-14T08:13:04;100535.97;;;15.95;24.38
46291;BME280;32023;44.444;26.006;2023-03-14T08:20:56;100515.38;;;16.77;23.46
46291;BME280;32023;44.444;26.006;2023-03-14T08:23:24;100522.13;;;16.95;23.32
46291;BME280;32023;44.444;26.006;2023-03-14T08:26:03;100510.69;;;17.15;23.25
46291;BME280;32023;44.444;26.006;2023-03-14T08:28:29;100513.25;;;17.30;23.12
46291;BME280;32023;44.444;26.006;2023-03-14T08:30:58;100504.53;;;17.56;22.37
46291;BME280;32023;44.444;26.006;2023-03-14T08:33:29;100499.78;;;17.75;22.29
46291;BME280;32023;44.444;26.006;2023-03-14T08:36:14;100498.53;;;18.00;21.84
46291;BME280;32023;44.444;26.006;2023-03-14T08:41:33;100486.34;;;18.09;21.77
46291;BME280;32023;44.444;26.006;2023-03-14T08:44:08;100478.13;;;18.18;21.63
46291;BME280;32023;44.444;26.006;2023-03-14T08:46:47;100477.75;;;18.38;21.57
46291;BME280;32023;44.444;26.006;2023-03-14T08:49:45;100474.75;;;18.62;21.27
46291;BME280;32023;44.444;26.006;2023-03-14T09:01:30;100445.97;;;19.74;19.81
46291;BME280;32023;44.444;26.006;2023-03-14T09:04:09;100439.59;;;19.82;19.63
46291;BME280;32023;44.444;26.006;2023-03-14T09:09:21;100420.22;;;20.16;19.41
46291;BME280;32023;44.444;26.006;2023-03-14T09:11:50;100425.66;;;20.22;19.09
46291;BME280;32023;44.444;26.006;2023-03-14T09:14:20;100425.59;;;20.35;18.90
46291;BME280;32023;44.444;26.006;2023-03-14T09:16:48;100417.63;;;20.68;18.68
46291;BME280;32023;44.444;26.006;2023-03-14T09:19:22;100417.00;;;21.05;18.09
46291;BME280;32023;44.444;26.006;2023-03-14T09:21:56;100417.41;;;21.30;17.99
46291;BME280;32023;44.444;26.006;2023-03-14T09:24:27;100415.88;;;21.49;17.61
46291;BME280;32023;44.444;26.006;2023-03-14T09:26:54;100408.91;;;21.73;17.40
46291;BME280;32023;44.444;26.006;2023-03-14T09:29:23;100407.34;;;22.09;17.05
46291;BME280;32023;44.444;26.006;2023-03-14T09:31:50;100399.97;;;22.43;16.56
46291;BME280;32023;44.444;26.006;2023-03-14T09:34:16;100393.41;;;22.68;16.09
46291;BME280;32023;44.444;26.006;2023-03-14T09:36:47;100394.31;;;22.81;15.84
46291;BME280;32023;44.444;26.006;2023-03-14T09:39:25;100385.63;;;22.94;15.64
46291;BME280;32023;44.444;26.006;2023-03-14T09:41:51;100384.06;;;23.26;15.18
46291;BME280;32023;44.444;26.006;2023-03-14T09:44:30;100384.91;;;23.39;15.29
46291;BME280;32023;44.444;26.006;2023-03-14T09:49:33;100376.38;;;24.25;14.42
46291;BME280;32023;44.444;26.006;2023-03-14T09:52:01;100373.47;;;24.58;13.94
46291;BME280;32023;44.444;26.006;2023-03-14T09:56:57;100364.97;;;25.62;12.83
46291;BME280;32023;44.444;26.006;2023-03-14T09:59:28;100364.66;;;25.95;12.79
46291;BME280;32023;44.444;26.006;2023-03-14T10:02:01;100352.94;;;26.09;11.78
46291;BME280;32023;44.444;26.006;2023-03-14T10:04:32;100360.19;;;25.51;11.56
46291;BME280;32023;44.444;26.006;2023-03-14T10:07:05;100343.03;;;26.30;11.21
46291;BME280;32023;44.444;26.006;2023-03-14T10:09:43;100340.75;;;27.44;10.42
46291;BME280;32023;44.444;26.006;2023-03-14T10:12:24;100338.16;;;28.68;9.75
46291;BME280;32023;44.444;26.006;2023-03-14T10:15:00;100330.53;;;29.65;9.08
46291;BME280;32023;44.444;26.006;2023-03-14T10:18:02;100322.25;;;30.31;7.88
46291;BME280;32023;44.444;26.006;2023-03-14T10:20:43;100319.81;;;32.44;7.80
46291;BME280;32023;44.444;26.006;2023-03-14T10:23:40;100303.00;;;33.90;6.47
46291;BME280;32023;44.444;26.006;2023-03-14T10:26:18;100294.16;;;35.38;5.89
46291;BME280;32023;44.444;26.006;2023-03-14T10:32:04;100291.72;;;35.93;5.43
46291;BME280;32023;44.444;26.006;2023-03-14T10:37:42;100274.69;;;37.19;4.43
46291;BME280;32023;44.444;26.006;2023-03-14T10:52:41;100231.69;;;39.06;3.38
46291;BME280;32023;44.444;26.006;2023-03-14T10:55:14;100227.22;;;39.05;3.14
46291;BME280;32023;44.444;26.006;2023-03-14T10:57:43;100225.34;;;38.24;3.22
46291;BME280;32023;44.444;26.006;2023-03-14T11:03:26;100202.31;;;38.40;2.88
46291;BME280;32023;44.444;26.006;2023-03-14T11:06:04;100195.75;;;38.40;3.08
46291;BME280;32023;44.444;26.006;2023-03-14T11:13:48;100170.72;;;37.59;3.37
46291;BME280;32023;44.444;26.006;2023-03-14T11:16:27;100170.78;;;37.04;3.39
46291;BME280;32023;44.444;26.006;2023-03-14T11:35:43;100124.63;;;38.53;3.55
46291;BME280;32023;44.444;26.006;2023-03-14T11:47:34;100113.56;;;35.71;3.42
46291;BME280;32023;44.444;26.006;2023-03-14T11:50:15;100089.63;;;35.82;3.86
46291;BME280;32023;44.444;26.006;2023-03-14T11:57:42;100077.16;;;34.95;4.69
46291;BME280;32023;44.444;26.006;2023-03-14T12:00:19;100072.31;;;36.08;4.47
46291;BME280;32023;44.444;26.006;2023-03-14T12:05:39;100064.03;;;35.48;4.74
46291;BME280;32023;44.444;26.006;2023-03-14T12:13:33;100058.50;;;31.95;5.78
46291;BME280;32023;44.444;26.006;2023-03-14T12:16:44;100051.28;;;31.13;6.36
46291;BME280;32023;44.444;26.006;2023-03-14T12:18:52;100048.00;;;30.86;6.17
46291;BME280;32023;44.444;26.006;2023-03-14T12:21:19;100045.28;;;30.07;6.74
46291;BME280;32023;44.444;26.006;2023-03-14T12:23:49;100060.25;;;28.21;6.92
46291;BME280;32023;44.444;26.006;2023-03-14T12:26:18;100046.34;;;27.04;7.63
46291;BME280;32023;44.444;26.006;2023-03-14T12:37:14;100023.69;;;25.62;8.80
46291;BME280;32023;44.444;26.006;2023-03-14T12:42:22;100011.13;;;24.78;8.74
46291;BME280;32023;44.444;26.006;2023-03-14T12:53:53;99977.25;;;24.43;9.21
46291;BME280;32023;44.444;26.006;2023-03-14T12:56:34;99972.94;;;23.50;9.86
46291;BME280;32023;44.444;26.006;2023-03-14T12:59:18;99959.22;;;22.84;10.15
46291;BME280;32023;44.444;26.006;2023-03-14T13:04:34;99946.91;;;22.65;10.44
46291;BME280;32023;44.444;26.006;2023-03-14T13:07:03;99948.44;;;22.86;10.48
46291;BME280;32023;44.444;26.006;2023-03-14T13:15:02;99937.41;;;22.57;10.67
46291;BME280;32023;44.444;26.006;2023-03-14T13:31:30;99912.19;;;21.67;11.40
46291;BME280;32023;44.444;26.006;2023-03-14T14:27:17;99806.22;;;21.16;11.18
46291;BME280;32023;44.444;26.006;2023-03-14T14:33:06;99762.75;;;21.09;11.13
46291;BME280;32023;44.444;26.006;2023-03-14T14:50:31;99776.56;;;20.94;11.38
46291;BME280;32023;44.444;26.006;2023-03-14T14:53:26;99772.88;;;20.81;11.56
46291;BME280;32023;44.444;26.006;2023-03-14T14:58:58;99764.84;;;20.59;11.70
46291;BME280;32023;44.444;26.006;2023-03-14T15:01:38;99751.19;;;20.37;11.66
46291;BME280;32023;44.444;26.006;2023-03-14T15:04:12;99751.44;;;20.23;11.97
46291;BME280;32023;44.444;26.006;2023-03-14T15:06:45;99749.38;;;20.11;11.87
46291;BME280;32023;44.444;26.006;2023-03-14T15:09:20;99743.66;;;19.99;11.86
46291;BME280;32023;44.444;26.006;2023-03-14T15:11:49;99748.69;;;19.85;12.10
46291;BME280;32023;44.444;26.006;2023-03-14T15:14:18;99745.66;;;19.61;12.38
46291;BME280;32023;44.444;26.006;2023-03-14T15:19:31;99730.53;;;19.07;12.73
46291;BME280;32023;44.444;26.006;2023-03-14T15:22:01;99715.97;;;18.84;13.15
46291;BME280;32023;44.444;26.006;2023-03-14T15:24:27;99716.63;;;18.64;13.51
46291;BME280;32023;44.444;26.006;2023-03-14T15:26:58;99712.97;;;18.29;13.76
46291;BME280;32023;44.444;26.006;2023-03-14T15:29:35;99722.94;;;18.04;14.03
46291;BME280;32023;44.444;26.006;2023-03-14T15:32:03;99729.63;;;17.86;14.09
46291;BME280;32023;44.444;26.006;2023-03-14T15:34:33;99716.16;;;17.71;14.42
46291;BME280;32023;44.444;26.006;2023-03-14T15:42:39;99723.81;;;17.34;15.07
46291;BME280;32023;44.444;26.006;2023-03-14T15:45:19;99715.25;;;17.22;15.20
46291;BME280;32023;44.444;26.006;2023-03-14T15:48:03;99714.84;;;17.07;15.46
46291;BME280;32023;44.444;26.006;2023-03-14T15:50:43;99719.47;;;16.89;16.21
46291;BME280;32023;44.444;26.006;2023-03-14T15:53:10;99717.06;;;16.74;16.54
46291;BME280;32023;44.444;26.006;2023-03-14T15:55:37;99709.44;;;16.57;17.17
46291;BME280;32023;44.444;26.006;2023-03-14T15:58:05;99711.09;;;16.45;17.31
46291;BME280;32023;44.444;26.006;2023-03-14T16:00:35;99704.13;;;16.33;17.50
46291;BME280;32023;44.444;26.006;2023-03-14T16:03:06;99706.00;;;16.24;17.32
46291;BME280;32023;44.444;26.006;2023-03-14T16:05:46;99705.41;;;16.14;17.28
46291;BME280;32023;44.444;26.006;2023-03-14T16:10:44;99712.78;;;15.96;17.64
46291;BME280;32023;44.444;26.006;2023-03-14T16:13:14;99707.44;;;15.86;17.49
46291;BME280;32023;44.444;26.006;2023-03-14T16:15:51;99707.34;;;15.77;17.47
46291;BME280;32023;44.444;26.006;2023-03-14T16:18:26;99710.56;;;15.71;17.85
46291;BME280;32023;44.444;26.006;2023-03-14T16:21:00;99701.28;;;15.62;17.88
46291;BME280;32023;44.444;26.006;2023-03-14T16:23:27;99706.72;;;15.53;18.25
46291;BME280;32023;44.444;26.006;2023-03-14T16:28:50;99706.72;;;15.39;18.44
46291;BME280;32023;44.444;26.006;2023-03-14T16:31:17;99707.13;;;15.33;18.52
46291;BME280;32023;44.444;26.006;2023-03-14T16:33:45;99711.44;;;15.25;19.11
46291;BME280;32023;44.444;26.006;2023-03-14T16:36:12;99708.75;;;15.20;19.27
46291;BME280;32023;44.444;26.006;2023-03-14T16:38:39;99704.44;;;15.14;19.13
46291;BME280;32023;44.444;26.006;2023-03-14T16:41:07;99711.50;;;15.07;19.49
46291;BME280;32023;44.444;26.006;2023-03-14T16:43:35;99706.66;;;14.99;19.38
46291;BME280;32023;44.444;26.006;2023-03-14T16:49:35;99698.28;;;14.85;19.70
46291;BME280;32023;44.444;26.006;2023-03-14T16:58:35;99699.25;;;14.62;20.05
46291;BME280;32023;44.444;26.006;2023-03-14T17:01:08;99696.03;;;14.55;19.99
46291;BME280;32023;44.444;26.006;2023-03-14T17:03:39;99694.50;;;14.49;20.23
46291;BME280;32023;44.444;26.006;2023-03-14T17:06:09;99695.47;;;14.39;20.09
46291;BME280;32023;44.444;26.006;2023-03-14T17:08:54;99697.47;;;14.33;20.00
46291;BME280;32023;44.444;26.006;2023-03-14T17:11:30;99683.19;;;14.26;19.89
46291;BME280;32023;44.444;26.006;2023-03-14T17:14:08;99689.91;;;14.20;20.05
46291;BME280;32023;44.444;26.006;2023-03-14T17:16:46;99688.63;;;14.13;19.89
46291;BME280;32023;44.444;26.006;2023-03-14T17:19:26;99687.59;;;14.09;20.00
46291;BME280;32023;44.444;26.006;2023-03-14T17:21:52;99679.38;;;14.04;20.04
46291;BME280;32023;44.444;26.006;2023-03-14T17:24:29;99678.81;;;14.02;20.14
46291;BME280;32023;44.444;26.006;2023-03-14T17:27:10;99677.28;;;13.95;20.00
46291;BME280;32023;44.444;26.006;2023-03-14T17:29:36;99674.06;;;13.88;20.13
46291;BME280;32023;44.444;26.006;2023-03-14T17:32:13;99670.22;;;13.84;20.19
46291;BME280;32023;44.444;26.006;2023-03-14T17:34:50;99668.66;;;13.78;19.90
46291;BME280;32023;44.444;26.006;2023-03-14T17:37:16;99667.31;;;13.76;20.08
46291;BME280;32023;44.444;26.006;2023-03-14T17:39:43;99669.84;;;13.72;20.01
46291;BME280;32023;44.444;26.006;2023-03-14T17:44:40;99668.63;;;13.60;20.18
46291;BME280;32023;44.444;26.006;2023-03-14T17:47:13;99663.69;;;13.57;20.49
46291;BME280;32023;44.444;26.006;2023-03-14T17:55:37;99667.59;;;13.32;20.65
46291;BME280;32023;44.444;26.006;2023-03-14T17:58:14;99666.31;;;13.24;20.84
46291;BME280;32023;44.444;26.006;2023-03-14T18:00:59;99671.13;;;13.14;20.83
46291;BME280;32023;44.444;26.006;2023-03-14T18:03:38;99659.84;;;13.05;20.48
46291;BME280;32023;44.444;26.006;2023-03-14T18:06:05;99667.69;;;12.98;20.62
46291;BME280;32023;44.444;26.006;2023-03-14T18:08:32;99673.78;;;12.95;20.62
46291;BME280;32023;44.444;26.006;2023-03-14T18:11:11;99668.03;;;12.91;20.73
46291;BME280;32023;44.444;26.006;2023-03-14T18:14:22;99663.13;;;12.83;20.88
46291;BME280;32023;44.444;26.006;2023-03-14T18:16:59;99662.91;;;12.80;20.89
46291;BME280;32023;44.444;26.006;2023-03-14T18:19:28;99659.94;;;12.71;21.53
46291;BME280;32023;44.444;26.006;2023-03-14T18:21:57;99663.03;;;12.65;21.33
46291;BME280;32023;44.444;26.006;2023-03-14T18:24:23;99659.50;;;12.59;21.41
46291;BME280;32023;44.444;26.006;2023-03-14T18:27:03;99660.34;;;12.54;21.35
46291;BME280;32023;44.444;26.006;2023-03-14T18:29:31;99667.06;;;12.48;21.37
46291;BME280;32023;44.444;26.006;2023-03-14T18:32:02;99653.00;;;12.45;21.27
46291;BME280;32023;44.444;26.006;2023-03-14T18:34:28;99656.63;;;12.40;21.24
46291;BME280;32023;44.444;26.006;2023-03-14T18:36:54;99672.66;;;12.38;21.41
46291;BME280;32023;44.444;26.006;2023-03-14T18:39:40;99667.19;;;12.33;21.60
46291;BME280;32023;44.444;26.006;2023-03-14T18:42:13;99662.00;;;12.27;21.52
46291;BME280;32023;44.444;26.006;2023-03-14T18:44:51;99659.25;;;12.22;21.94
46291;BME280;32023;44.444;26.006;2023-03-14T18:47:49;99660.13;;;12.17;22.13
46291;BME280;32023;44.444;26.006;2023-03-14T18:50:17;99673.97;;;12.12;22.15
46291;BME280;32023;44.444;26.006;2023-03-14T18:52:57;99660.72;;;12.09;22.96
46291;BME280;32023;44.444;26.006;2023-03-14T18:58:46;99662.22;;;11.91;22.63
46291;BME280;32023;44.444;26.006;2023-03-14T19:01:28;99657.03;;;11.85;23.09
46291;BME280;32023;44.444;26.006;2023-03-14T19:04:21;99662.31;;;11.76;22.86
46291;BME280;32023;44.444;26.006;2023-03-14T19:06:49;99662.59;;;11.70;23.25
46291;BME280;32023;44.444;26.006;2023-03-14T19:09:16;99654.69;;;11.58;23.39
46291;BME280;32023;44.444;26.006;2023-03-14T19:12:05;99646.16;;;11.49;23.49
46291;BME280;32023;44.444;26.006;2023-03-14T19:14:36;99655.84;;;11.42;24.06
46291;BME280;32023;44.444;26.006;2023-03-14T19:17:33;99647.91;;;11.30;24.19
46291;BME280;32023;44.444;26.006;2023-03-14T19:20:08;99659.81;;;11.21;24.73
46291;BME280;32023;44.444;26.006;2023-03-14T19:22:37;99646.34;;;11.09;24.89
46291;BME280;32023;44.444;26.006;2023-03-14T19:25:34;99652.69;;;10.99;25.62
46291;BME280;32023;44.444;26.006;2023-03-14T19:28:11;99650.25;;;10.88;26.00
46291;BME280;32023;44.444;26.006;2023-03-14T19:30:49;99649.19;;;10.74;27.12
46291;BME280;32023;44.444;26.006;2023-03-14T19:36:24;99654.44;;;10.50;28.07
46291;BME280;32023;44.444;26.006;2023-03-14T19:38:54;99654.72;;;10.43;28.65
46291;BME280;32023;44.444;26.006;2023-03-14T19:41:24;99659.16;;;10.34;29.44
46291;BME280;32023;44.444;26.006;2023-03-14T19:43:58;99644.53;;;10.24;29.88
46291;BME280;32023;44.444;26.006;2023-03-14T19:46:26;99648.94;;;10.14;30.81
46291;BME280;32023;44.444;26.006;2023-03-14T19:48:52;99646.97;;;10.05;30.80
46291;BME280;32023;44.444;26.006;2023-03-14T19:51:24;99644.78;;;9.97;31.26
46291;BME280;32023;44.444;26.006;2023-03-14T19:56:37;99640.34;;;9.76;32.10
46291;BME280;32023;44.444;26.006;2023-03-14T19:59:17;99646.66;;;9.71;32.39
46291;BME280;32023;44.444;26.006;2023-03-14T20:02:31;99648.00;;;9.58;32.86
46291;BME280;32023;44.444;26.006;2023-03-14T20:05:01;99651.81;;;9.47;33.05
46291;BME280;32023;44.444;26.006;2023-03-14T20:07:30;99647.09;;;9.38;33.38
46291;BME280;32023;44.444;26.006;2023-03-14T20:59:00;99632.06;;;8.46;35.98
46291;BME280;32023;44.444;26.006;2023-03-14T21:01:49;99627.91;;;8.39;35.91
46291;BME280;32023;44.444;26.006;2023-03-14T21:04:43;99620.66;;;8.28;36.15
46291;BME280;32023;44.444;26.006;2023-03-14T21:09:53;99613.19;;;8.18;36.26
46291;BME280;32023;44.444;26.006;2023-03-14T21:12:37;99610.41;;;8.13;36.55
46291;BME280;32023;44.444;26.006;2023-03-14T21:15:17;99609.03;;;8.10;36.89
46291;BME280;32023;44.444;26.006;2023-03-14T21:17:54;99606.53;;;8.09;36.66
46291;BME280;32023;44.444;26.006;2023-03-14T21:20:34;99590.59;;;8.06;36.78
46291;BME280;32023;44.444;26.006;2023-03-14T21:23:23;99592.25;;;8.07;36.73
46291;BME280;32023;44.444;26.006;2023-03-14T21:26:01;99584.81;;;8.02;36.75
46291;BME280;32023;44.444;26.006;2023-03-14T21:29:04;99585.88;;;7.96;37.06
46291;BME280;32023;44.444;26.006;2023-03-14T21:43:36;99575.88;;;7.80;37.31
46291;BME280;32023;44.444;26.006;2023-03-14T22:07:30;99553.66;;;7.50;38.26
46291;BME280;32023;44.444;26.006;2023-03-14T22:20:12;99546.53;;;7.22;39.69
46291;BME280;32023;44.444;26.006;2023-03-14T22:25:59;99551.84;;;7.29;39.54
46291;BME280;32023;44.444;26.006;2023-03-14T22:28:38;99544.41;;;7.29;40.11
46291;BME280;32023;44.444;26.006;2023-03-14T22:31:05;99543.03;;;7.26;40.21
46291;BME280;32023;44.444;26.006;2023-03-14T22:33:46;99539.75;;;7.24;40.55
46291;BME280;32023;44.444;26.006;2023-03-14T22:36:34;99550.25;;;7.11;40.80
46291;BME280;32023;44.444;26.006;2023-03-14T22:39:20;99554.28;;;7.03;40.85
46291;BME280;32023;44.444;26.006;2023-03-14T22:41:46;99543.00;;;7.00;40.98
46291;BME280;32023;44.444;26.006;2023-03-14T22:44:13;99545.19;;;6.98;40.77